sensor_id;sensor_type;location;lat;lon;timestamp;P1;durP1;ratioP1;P2;durP2;ratioP2
22883;SDS011;13386;24.786;110.488;2023-05-07T00:02:11;10.20;;;5.07;;
22883;SDS011;13386;24.786;110.488;2023-05-07T00:04:41;11.02;;;5.43;;
22883;SDS011;13386;24.786;110.488;2023-05-07T00:07:13;10.80;;;5.40;;
22883;SDS011;13386;24.786;110.488;2023-05-07T00:09:44;9.63;;;5.20;;
22883;SDS011;13386;24.786;110.488;2023-05-07T00:12:14;11.23;;;5.13;;
22883;SDS011;13386;24.786;110.488;2023-05-07T00:14:44;10.32;;;4.53;;
22883;SDS011;13386;24.786;110.488;2023-05-07T00:17:14;8.93;;;4.38;;
22883;SDS011;13386;24.786;110.488;2023-05-07T00:19:44;8.27;;;4.53;;
22883;SDS011;13386;24.786;110.488;2023-05-07T00:22:16;10.05;;;4.10;;
22883;SDS011;13386;24.786;110.488;2023-05-07T00:24:46;8.50;;;4.38;;
22883;SDS011;13386;24.786;110.488;2023-05-07T00:27:16;7.82;;;4.47;;
22883;SDS011;13386;24.786;110.488;2023-05-07T00:29:46;10.75;;;4.75;;
22883;SDS011;13386;24.786;110.488;2023-05-07T00:32:16;11.25;;;4.63;;
22883;SDS011;13386;24.786;110.488;2023-05-07T00:34:47;9.07;;;4.88;;
22883;SDS011;13386;24.786;110.488;2023-05-07T00:37:19;8.00;;;4.43;;
22883;SDS011;13386;24.786;110.488;2023-05-07T00:39:49;7.28;;;4.28;;
22883;SDS011;13386;24.786;110.488;2023-05-07T00:42:19;10.05;;;4.50;;
22883;SDS011;13386;24.786;110.488;2023-05-07T00:44:50;8.13;;;4.20;;
22883;SDS011;13386;24.786;110.488;2023-05-07T00:47:21;10.27;;;4.47;;
22883;SDS011;13386;24.786;110.488;2023-05-07T00:49:51;7.40;;;3.90;;
22883;SDS011;13386;24.786;110.488;2023-05-07T00:52:23;9.18;;;3.47;;
22883;SDS011;13386;24.786;110.488;2023-05-07T00:54:58;11.48;;;3.78;;
22883;SDS011;13386;24.786;110.488;2023-05-07T00:57:30;7.18;;;3.38;;
22883;SDS011;13386;24.786;110.488;2023-05-07T01:00:02;5.57;;;3.17;;
22883;SDS011;13386;24.786;110.488;2023-05-07T01:02:32;8.20;;;3.50;;
22883;SDS011;13386;24.786;110.488;2023-05-07T01:05:07;6.88;;;3.20;;
22883;SDS011;13386;24.786;110.488;2023-05-07T01:07:40;5.97;;;3.38;;
22883;SDS011;13386;24.786;110.488;2023-05-07T01:10:10;6.82;;;3.20;;
22883;SDS011;13386;24.786;110.488;2023-05-07T01:12:42;11.68;;;3.72;;
22883;SDS011;13386;24.786;110.488;2023-05-07T01:15:13;8.70;;;3.22;;
22883;SDS011;13386;24.786;110.488;2023-05-07T01:17:43;6.88;;;3.40;;
22883;SDS011;13386;24.786;110.488;2023-05-07T01:20:20;7.80;;;3.65;;
22883;SDS011;13386;24.786;110.488;2023-05-07T01:22:54;7.32;;;3.38;;
22883;SDS011;13386;24.786;110.488;2023-05-07T01:27:59;6.13;;;2.88;;
22883;SDS011;13386;24.786;110.488;2023-05-07T01:30:35;6.70;;;2.92;;
22883;SDS011;13386;24.786;110.488;2023-05-07T01:33:09;12.38;;;3.58;;
22883;SDS011;13386;24.786;110.488;2023-05-07T01:35:43;6.47;;;2.80;;
22883;SDS011;13386;24.786;110.488;2023-05-07T01:38:15;12.68;;;3.10;;
22883;SDS011;13386;24.786;110.488;2023-05-07T01:40:45;6.85;;;2.80;;
22883;SDS011;13386;24.786;110.488;2023-05-07T01:43:16;4.95;;;2.30;;
22883;SDS011;13386;24.786;110.488;2023-05-07T01:45:48;8.75;;;2.75;;
22883;SDS011;13386;24.786;110.488;2023-05-07T01:48:19;5.30;;;2.50;;
22883;SDS011;13386;24.786;110.488;2023-05-07T01:50:49;4.60;;;2.40;;
22883;SDS011;13386;24.786;110.488;2023-05-07T01:53:22;6.80;;;2.60;;
22883;SDS011;13386;24.786;110.488;2023-05-07T01:55:52;8.95;;;2.70;;
22883;SDS011;13386;24.786;110.488;2023-05-07T01:58:24;6.63;;;2.60;;
22883;SDS011;13386;24.786;110.488;2023-05-07T02:00:54;4.55;;;2.25;;
22883;SDS011;13386;24.786;110.488;2023-05-07T02:03:24;4.65;;;2.30;;
22883;SDS011;13386;24.786;110.488;2023-05-07T02:06:03;4.28;;;2.38;;
22883;SDS011;13386;24.786;110.488;2023-05-07T02:08:39;4.68;;;2.40;;
22883;SDS011;13386;24.786;110.488;2023-05-07T02:11:11;4.22;;;2.40;;
22883;SDS011;13386;24.786;110.488;2023-05-07T02:13:43;4.65;;;2.08;;
22883;SDS011;13386;24.786;110.488;2023-05-07T02:16:13;5.40;;;2.50;;
22883;SDS011;13386;24.786;110.488;2023-05-07T02:18:45;4.85;;;2.40;;
22883;SDS011;13386;24.786;110.488;2023-05-07T02:21:29;8.52;;;2.40;;
22883;SDS011;13386;24.786;110.488;2023-05-07T02:24:01;7.03;;;2.47;;
22883;SDS011;13386;24.786;110.488;2023-05-07T02:26:31;8.23;;;2.47;;
22883;SDS011;13386;24.786;110.488;2023-05-07T02:29:02;5.55;;;2.30;;
22883;SDS011;13386;24.786;110.488;2023-05-07T02:31:32;4.95;;;2.10;;
22883;SDS011;13386;24.786;110.488;2023-05-07T02:34:07;3.13;;;1.80;;
22883;SDS011;13386;24.786;110.488;2023-05-07T02:36:37;6.88;;;1.95;;
22883;SDS011;13386;24.786;110.488;2023-05-07T02:39:13;4.05;;;2.03;;
22883;SDS011;13386;24.786;110.488;2023-05-07T02:41:44;5.50;;;2.50;;
22883;SDS011;13386;24.786;110.488;2023-05-07T02:44:15;3.80;;;1.73;;
22883;SDS011;13386;24.786;110.488;2023-05-07T02:46:49;6.35;;;2.20;;
22883;SDS011;13386;24.786;110.488;2023-05-07T02:49:20;8.07;;;1.85;;
22883;SDS011;13386;24.786;110.488;2023-05-07T02:51:50;3.47;;;1.80;;
22883;SDS011;13386;24.786;110.488;2023-05-07T02:54:25;3.85;;;1.98;;
22883;SDS011;13386;24.786;110.488;2023-05-07T02:56:56;4.22;;;1.80;;
22883;SDS011;13386;24.786;110.488;2023-05-07T02:59:29;4.10;;;2.33;;
22883;SDS011;13386;24.786;110.488;2023-05-07T03:02:05;4.22;;;1.70;;
22883;SDS011;13386;24.786;110.488;2023-05-07T03:04:35;3.28;;;1.70;;
22883;SDS011;13386;24.786;110.488;2023-05-07T03:07:05;4.78;;;1.80;;
22883;SDS011;13386;24.786;110.488;2023-05-07T03:09:37;5.60;;;1.73;;
22883;SDS011;13386;24.786;110.488;2023-05-07T03:12:08;6.10;;;2.40;;
22883;SDS011;13386;24.786;110.488;2023-05-07T03:14:39;4.10;;;2.20;;
22883;SDS011;13386;24.786;110.488;2023-05-07T03:17:12;3.67;;;1.90;;
22883;SDS011;13386;24.786;110.488;2023-05-07T03:19:43;3.72;;;1.77;;
22883;SDS011;13386;24.786;110.488;2023-05-07T03:22:16;3.00;;;1.60;;
22883;SDS011;13386;24.786;110.488;2023-05-07T03:24:49;4.03;;;1.48;;
22883;SDS011;13386;24.786;110.488;2023-05-07T03:27:19;2.33;;;1.30;;
22883;SDS011;13386;24.786;110.488;2023-05-07T03:29:54;4.57;;;1.38;;
22883;SDS011;13386;24.786;110.488;2023-05-07T03:32:24;4.05;;;1.52;;
22883;SDS011;13386;24.786;110.488;2023-05-07T03:34:56;4.47;;;1.58;;
22883;SDS011;13386;24.786;110.488;2023-05-07T03:37:27;6.57;;;1.40;;
22883;SDS011;13386;24.786;110.488;2023-05-07T03:40:00;4.13;;;1.40;;
22883;SDS011;13386;24.786;110.488;2023-05-07T03:42:41;4.82;;;1.60;;
22883;SDS011;13386;24.786;110.488;2023-05-07T03:45:13;3.33;;;1.58;;
22883;SDS011;13386;24.786;110.488;2023-05-07T03:50:20;3.13;;;1.60;;
22883;SDS011;13386;24.786;110.488;2023-05-07T03:52:52;4.28;;;1.73;;
22883;SDS011;13386;24.786;110.488;2023-05-07T03:55:25;2.28;;;1.30;;
22883;SDS011;13386;24.786;110.488;2023-05-07T04:00:30;2.63;;;1.52;;
22883;SDS011;13386;24.786;110.488;2023-05-07T04:03:14;3.92;;;1.50;;
22883;SDS011;13386;24.786;110.488;2023-05-07T04:05:45;4.10;;;1.80;;
22883;SDS011;13386;24.786;110.488;2023-05-07T04:08:17;4.60;;;1.60;;
22883;SDS011;13386;24.786;110.488;2023-05-07T04:10:56;4.32;;;1.67;;
22883;SDS011;13386;24.786;110.488;2023-05-07T04:13:31;6.97;;;1.60;;
22883;SDS011;13386;24.786;110.488;2023-05-07T04:16:04;6.32;;;2.00;;
22883;SDS011;13386;24.786;110.488;2023-05-07T04:18:36;5.43;;;1.75;;
22883;SDS011;13386;24.786;110.488;2023-05-07T04:21:07;5.32;;;1.92;;
22883;SDS011;13386;24.786;110.488;2023-05-07T04:23:45;4.80;;;1.80;;
22883;SDS011;13386;24.786;110.488;2023-05-07T04:29:03;4.93;;;2.10;;
22883;SDS011;13386;24.786;110.488;2023-05-07T04:31:34;3.55;;;1.88;;
22883;SDS011;13386;24.786;110.488;2023-05-07T04:34:04;3.08;;;1.70;;
22883;SDS011;13386;24.786;110.488;2023-05-07T04:36:37;4.88;;;1.83;;
22883;SDS011;13386;24.786;110.488;2023-05-07T04:39:11;4.57;;;1.80;;
22883;SDS011;13386;24.786;110.488;2023-05-07T04:41:44;5.72;;;1.80;;
22883;SDS011;13386;24.786;110.488;2023-05-07T04:44:16;4.28;;;1.80;;
22883;SDS011;13386;24.786;110.488;2023-05-07T04:46:55;3.20;;;1.60;;
22883;SDS011;13386;24.786;110.488;2023-05-07T04:49:29;3.30;;;1.58;;
22883;SDS011;13386;24.786;110.488;2023-05-07T04:52:01;4.78;;;1.60;;
22883;SDS011;13386;24.786;110.488;2023-05-07T04:54:34;4.03;;;1.50;;
22883;SDS011;13386;24.786;110.488;2023-05-07T04:57:07;3.67;;;1.60;;
22883;SDS011;13386;24.786;110.488;2023-05-07T04:59:41;2.85;;;1.38;;
22883;SDS011;13386;24.786;110.488;2023-05-07T05:02:11;2.22;;;1.27;;
22883;SDS011;13386;24.786;110.488;2023-05-07T05:04:43;1.80;;;1.00;;
22883;SDS011;13386;24.786;110.488;2023-05-07T05:07:13;2.88;;;1.15;;
22883;SDS011;13386;24.786;110.488;2023-05-07T05:09:44;4.13;;;1.20;;
22883;SDS011;13386;24.786;110.488;2023-05-07T05:12:15;2.80;;;1.20;;
22883;SDS011;13386;24.786;110.488;2023-05-07T05:14:51;10.85;;;2.17;;
22883;SDS011;13386;24.786;110.488;2023-05-07T05:17:21;2.28;;;1.30;;
22883;SDS011;13386;24.786;110.488;2023-05-07T05:19:52;3.85;;;1.30;;
22883;SDS011;13386;24.786;110.488;2023-05-07T05:22:24;2.15;;;1.30;;
22883;SDS011;13386;24.786;110.488;2023-05-07T05:24:57;3.10;;;1.17;;
22883;SDS011;13386;24.786;110.488;2023-05-07T05:27:39;3.08;;;1.05;;
22883;SDS011;13386;24.786;110.488;2023-05-07T05:30:13;2.90;;;1.17;;
22883;SDS011;13386;24.786;110.488;2023-05-07T05:32:46;3.63;;;1.20;;
22883;SDS011;13386;24.786;110.488;2023-05-07T05:35:21;3.40;;;1.15;;
22883;SDS011;13386;24.786;110.488;2023-05-07T05:37:54;2.97;;;1.35;;
22883;SDS011;13386;24.786;110.488;2023-05-07T05:40:24;14.57;;;3.63;;
22883;SDS011;13386;24.786;110.488;2023-05-07T05:42:58;2.83;;;1.33;;
22883;SDS011;13386;24.786;110.488;2023-05-07T05:45:37;10.52;;;3.28;;
22883;SDS011;13386;24.786;110.488;2023-05-07T05:48:08;12.35;;;3.03;;
22883;SDS011;13386;24.786;110.488;2023-05-07T05:50:43;6.95;;;1.98;;
22883;SDS011;13386;24.786;110.488;2023-05-07T05:53:14;5.63;;;2.40;;
22883;SDS011;13386;24.786;110.488;2023-05-07T05:55:44;5.25;;;1.83;;
22883;SDS011;13386;24.786;110.488;2023-05-07T05:58:16;4.72;;;1.42;;
22883;SDS011;13386;24.786;110.488;2023-05-07T06:01:00;5.68;;;1.85;;
22883;SDS011;13386;24.786;110.488;2023-05-07T06:03:36;3.08;;;1.15;;
22883;SDS011;13386;24.786;110.488;2023-05-07T06:06:14;1.80;;;1.10;;
22883;SDS011;13386;24.786;110.488;2023-05-07T06:08:47;6.47;;;1.48;;
22883;SDS011;13386;24.786;110.488;2023-05-07T06:11:22;3.42;;;1.35;;
22883;SDS011;13386;24.786;110.488;2023-05-07T06:13:55;2.22;;;1.10;;
22883;SDS011;13386;24.786;110.488;2023-05-07T06:16:28;2.90;;;1.08;;
22883;SDS011;13386;24.786;110.488;2023-05-07T06:19:01;2.88;;;1.30;;
22883;SDS011;13386;24.786;110.488;2023-05-07T06:21:39;2.45;;;1.20;;
22883;SDS011;13386;24.786;110.488;2023-05-07T06:24:15;2.60;;;1.20;;
22883;SDS011;13386;24.786;110.488;2023-05-07T06:26:46;2.92;;;1.20;;
22883;SDS011;13386;24.786;110.488;2023-05-07T06:29:16;3.42;;;1.00;;
22883;SDS011;13386;24.786;110.488;2023-05-07T06:31:50;2.38;;;1.00;;
22883;SDS011;13386;24.786;110.488;2023-05-07T06:34:22;2.15;;;1.15;;
22883;SDS011;13386;24.786;110.488;2023-05-07T06:36:53;9.13;;;3.88;;
22883;SDS011;13386;24.786;110.488;2023-05-07T06:39:46;3.67;;;1.10;;
22883;SDS011;13386;24.786;110.488;2023-05-07T06:42:18;3.42;;;1.20;;
22883;SDS011;13386;24.786;110.488;2023-05-07T06:44:50;3.22;;;1.30;;
22883;SDS011;13386;24.786;110.488;2023-05-07T06:47:22;2.20;;;0.93;;
22883;SDS011;13386;24.786;110.488;2023-05-07T06:49:56;3.22;;;1.20;;
22883;SDS011;13386;24.786;110.488;2023-05-07T06:52:31;1.00;;;0.70;;
22883;SDS011;13386;24.786;110.488;2023-05-07T06:55:02;2.63;;;1.10;;
22883;SDS011;13386;24.786;110.488;2023-05-07T06:57:33;2.20;;;1.30;;
22883;SDS011;13386;24.786;110.488;2023-05-07T07:00:09;3.65;;;1.00;;
22883;SDS011;13386;24.786;110.488;2023-05-07T07:02:48;3.03;;;1.15;;
22883;SDS011;13386;24.786;110.488;2023-05-07T07:07:51;2.08;;;1.05;;
22883;SDS011;13386;24.786;110.488;2023-05-07T07:10:26;2.33;;;1.25;;
22883;SDS011;13386;24.786;110.488;2023-05-07T07:12:57;2.50;;;1.40;;
22883;SDS011;13386;24.786;110.488;2023-05-07T07:15:28;2.28;;;1.20;;
22883;SDS011;13386;24.786;110.488;2023-05-07T07:18:01;3.05;;;1.00;;
22883;SDS011;13386;24.786;110.488;2023-05-07T07:20:31;2.45;;;1.08;;
22883;SDS011;13386;24.786;110.488;2023-05-07T07:23:03;7.32;;;3.25;;
22883;SDS011;13386;24.786;110.488;2023-05-07T07:25:37;2.13;;;1.20;;
22883;SDS011;13386;24.786;110.488;2023-05-07T07:28:15;2.90;;;1.10;;
22883;SDS011;13386;24.786;110.488;2023-05-07T07:30:46;5.40;;;2.00;;
22883;SDS011;13386;24.786;110.488;2023-05-07T07:33:20;3.55;;;1.20;;
22883;SDS011;13386;24.786;110.488;2023-05-07T07:35:51;3.17;;;1.30;;
22883;SDS011;13386;24.786;110.488;2023-05-07T07:38:22;2.63;;;1.38;;
22883;SDS011;13386;24.786;110.488;2023-05-07T07:40:57;4.65;;;1.45;;
22883;SDS011;13386;24.786;110.488;2023-05-07T07:43:31;3.83;;;1.30;;
22883;SDS011;13386;24.786;110.488;2023-05-07T07:46:01;4.68;;;1.50;;
22883;SDS011;13386;24.786;110.488;2023-05-07T07:48:38;3.13;;;1.92;;
22883;SDS011;13386;24.786;110.488;2023-05-07T07:51:09;3.00;;;1.50;;
22883;SDS011;13386;24.786;110.488;2023-05-07T07:53:42;2.35;;;1.48;;
22883;SDS011;13386;24.786;110.488;2023-05-07T07:56:13;3.70;;;1.25;;
22883;SDS011;13386;24.786;110.488;2023-05-07T07:58:43;2.30;;;1.30;;
22883;SDS011;13386;24.786;110.488;2023-05-07T08:01:20;1.65;;;1.05;;
22883;SDS011;13386;24.786;110.488;2023-05-07T08:03:53;2.47;;;1.20;;
22883;SDS011;13386;24.786;110.488;2023-05-07T08:06:26;2.65;;;1.38;;
22883;SDS011;13386;24.786;110.488;2023-05-07T08:08:57;4.22;;;1.30;;
22883;SDS011;13386;24.786;110.488;2023-05-07T08:11:29;2.47;;;1.40;;
22883;SDS011;13386;24.786;110.488;2023-05-07T08:14:02;2.55;;;1.50;;
22883;SDS011;13386;24.786;110.488;2023-05-07T08:16:33;2.28;;;1.30;;
22883;SDS011;13386;24.786;110.488;2023-05-07T08:19:07;2.47;;;1.27;;
22883;SDS011;13386;24.786;110.488;2023-05-07T08:21:39;3.67;;;1.60;;
22883;SDS011;13386;24.786;110.488;2023-05-07T08:24:11;2.85;;;1.33;;
22883;SDS011;13386;24.786;110.488;2023-05-07T08:26:44;2.58;;;1.50;;
22883;SDS011;13386;24.786;110.488;2023-05-07T08:29:15;2.80;;;1.50;;
22883;SDS011;13386;24.786;110.488;2023-05-07T08:31:49;5.00;;;1.52;;
22883;SDS011;13386;24.786;110.488;2023-05-07T08:34:21;2.72;;;1.50;;
22883;SDS011;13386;24.786;110.488;2023-05-07T08:36:53;3.53;;;1.60;;
22883;SDS011;13386;24.786;110.488;2023-05-07T08:39:44;2.83;;;1.55;;
22883;SDS011;13386;24.786;110.488;2023-05-07T08:42:21;2.78;;;1.45;;
22883;SDS011;13386;24.786;110.488;2023-05-07T08:44:54;2.90;;;1.58;;
22883;SDS011;13386;24.786;110.488;2023-05-07T08:47:29;4.18;;;1.70;;
22883;SDS011;13386;24.786;110.488;2023-05-07T08:50:11;3.72;;;1.80;;
22883;SDS011;13386;24.786;110.488;2023-05-07T08:52:42;3.47;;;2.20;;
22883;SDS011;13386;24.786;110.488;2023-05-07T08:55:13;4.50;;;2.70;;
22883;SDS011;13386;24.786;110.488;2023-05-07T08:57:43;4.45;;;2.08;;
22883;SDS011;13386;24.786;110.488;2023-05-07T09:00:17;10.80;;;2.58;;
22883;SDS011;13386;24.786;110.488;2023-05-07T09:02:50;6.75;;;2.45;;
22883;SDS011;13386;24.786;110.488;2023-05-07T09:05:23;3.72;;;2.20;;
22883;SDS011;13386;24.786;110.488;2023-05-07T09:07:54;3.15;;;1.95;;
22883;SDS011;13386;24.786;110.488;2023-05-07T09:10:26;3.65;;;2.10;;
22883;SDS011;13386;24.786;110.488;2023-05-07T09:12:56;5.15;;;2.67;;
22883;SDS011;13386;24.786;110.488;2023-05-07T09:15:29;5.75;;;2.70;;
22883;SDS011;13386;24.786;110.488;2023-05-07T09:18:00;9.57;;;2.75;;
22883;SDS011;13386;24.786;110.488;2023-05-07T09:20:34;4.03;;;2.50;;
22883;SDS011;13386;24.786;110.488;2023-05-07T09:23:07;5.03;;;2.47;;
22883;SDS011;13386;24.786;110.488;2023-05-07T09:25:39;3.88;;;2.20;;
22883;SDS011;13386;24.786;110.488;2023-05-07T09:28:18;5.30;;;2.50;;
22883;SDS011;13386;24.786;110.488;2023-05-07T09:30:51;4.18;;;2.58;;
22883;SDS011;13386;24.786;110.488;2023-05-07T09:33:24;4.38;;;2.50;;
22883;SDS011;13386;24.786;110.488;2023-05-07T09:38:29;4.10;;;2.40;;
22883;SDS011;13386;24.786;110.488;2023-05-07T09:41:03;4.43;;;2.70;;
22883;SDS011;13386;24.786;110.488;2023-05-07T09:43:39;10.23;;;2.53;;
22883;SDS011;13386;24.786;110.488;2023-05-07T09:46:14;6.00;;;2.88;;
22883;SDS011;13386;24.786;110.488;2023-05-07T09:48:52;4.22;;;2.60;;
22883;SDS011;13386;24.786;110.488;2023-05-07T09:51:24;5.22;;;2.85;;
22883;SDS011;13386;24.786;110.488;2023-05-07T09:53:59;4.68;;;2.70;;
22883;SDS011;13386;24.786;110.488;2023-05-07T09:56:32;6.93;;;3.08;;
22883;SDS011;13386;24.786;110.488;2023-05-07T09:59:05;6.72;;;3.20;;
22883;SDS011;13386;24.786;110.488;2023-05-07T10:01:37;3.92;;;2.55;;
22883;SDS011;13386;24.786;110.488;2023-05-07T10:04:07;5.13;;;2.75;;
22883;SDS011;13386;24.786;110.488;2023-05-07T10:06:39;8.52;;;3.03;;
22883;SDS011;13386;24.786;110.488;2023-05-07T10:09:13;4.95;;;3.28;;
22883;SDS011;13386;24.786;110.488;2023-05-07T10:11:45;6.45;;;3.50;;
22883;SDS011;13386;24.786;110.488;2023-05-07T10:14:19;7.45;;;3.58;;
22883;SDS011;13386;24.786;110.488;2023-05-07T10:17:16;6.43;;;3.45;;
22883;SDS011;13386;24.786;110.488;2023-05-07T10:19:47;5.30;;;3.30;;
22883;SDS011;13386;24.786;110.488;2023-05-07T10:22:21;6.22;;;3.50;;
22883;SDS011;13386;24.786;110.488;2023-05-07T10:24:53;7.97;;;3.65;;
22883;SDS011;13386;24.786;110.488;2023-05-07T10:27:28;7.10;;;3.35;;
22883;SDS011;13386;24.786;110.488;2023-05-07T10:30:00;6.22;;;3.22;;
22883;SDS011;13386;24.786;110.488;2023-05-07T10:32:39;12.00;;;4.40;;
22883;SDS011;13386;24.786;110.488;2023-05-07T10:35:17;7.40;;;3.80;;
22883;SDS011;13386;24.786;110.488;2023-05-07T10:37:52;8.52;;;3.90;;
22883;SDS011;13386;24.786;110.488;2023-05-07T10:40:27;6.97;;;3.75;;
22883;SDS011;13386;24.786;110.488;2023-05-07T10:42:57;9.65;;;4.32;;
22883;SDS011;13386;24.786;110.488;2023-05-07T10:48:07;6.10;;;3.72;;
22883;SDS011;13386;24.786;110.488;2023-05-07T10:50:38;6.07;;;3.58;;
22883;SDS011;13386;24.786;110.488;2023-05-07T10:53:25;10.35;;;4.57;;
22883;SDS011;13386;24.786;110.488;2023-05-07T10:56:27;8.40;;;4.00;;
22883;SDS011;13386;24.786;110.488;2023-05-07T10:59:31;6.68;;;3.88;;
22883;SDS011;13386;24.786;110.488;2023-05-07T11:02:15;6.75;;;3.60;;
22883;SDS011;13386;24.786;110.488;2023-05-07T11:07:53;8.85;;;4.15;;
22883;SDS011;13386;24.786;110.488;2023-05-07T11:13:43;6.45;;;3.72;;
22883;SDS011;13386;24.786;110.488;2023-05-07T11:16:40;6.05;;;3.88;;
22883;SDS011;13386;24.786;110.488;2023-05-07T11:25:06;10.40;;;4.15;;
22883;SDS011;13386;24.786;110.488;2023-05-07T11:27:37;7.70;;;4.45;;
22883;SDS011;13386;24.786;110.488;2023-05-07T11:30:18;6.15;;;3.67;;
22883;SDS011;13386;24.786;110.488;2023-05-07T11:32:49;7.65;;;4.40;;
22883;SDS011;13386;24.786;110.488;2023-05-07T11:35:19;7.15;;;4.05;;
22883;SDS011;13386;24.786;110.488;2023-05-07T11:37:58;7.03;;;4.10;;
22883;SDS011;13386;24.786;110.488;2023-05-07T11:40:34;9.65;;;4.10;;
22883;SDS011;13386;24.786;110.488;2023-05-07T11:43:10;8.15;;;4.18;;
22883;SDS011;13386;24.786;110.488;2023-05-07T11:45:42;6.30;;;3.85;;
22883;SDS011;13386;24.786;110.488;2023-05-07T11:48:13;6.53;;;3.78;;
22883;SDS011;13386;24.786;110.488;2023-05-07T11:50:52;10.85;;;4.32;;
22883;SDS011;13386;24.786;110.488;2023-05-07T11:53:35;7.15;;;3.83;;
22883;SDS011;13386;24.786;110.488;2023-05-07T11:56:16;8.57;;;4.00;;
22883;SDS011;13386;24.786;110.488;2023-05-07T11:58:47;8.05;;;4.22;;
22883;SDS011;13386;24.786;110.488;2023-05-07T12:01:20;7.03;;;3.90;;
22883;SDS011;13386;24.786;110.488;2023-05-07T12:03:52;7.60;;;4.07;;
22883;SDS011;13386;24.786;110.488;2023-05-07T12:06:25;8.18;;;4.10;;
22883;SDS011;13386;24.786;110.488;2023-05-07T12:08:55;7.22;;;4.22;;
22883;SDS011;13386;24.786;110.488;2023-05-07T12:11:27;6.70;;;4.18;;
22883;SDS011;13386;24.786;110.488;2023-05-07T12:14:05;6.70;;;4.15;;
22883;SDS011;13386;24.786;110.488;2023-05-07T12:16:41;6.75;;;3.97;;
22883;SDS011;13386;24.786;110.488;2023-05-07T12:19:11;8.45;;;4.25;;
22883;SDS011;13386;24.786;110.488;2023-05-07T12:21:42;6.35;;;3.92;;
22883;SDS011;13386;24.786;110.488;2023-05-07T12:24:14;7.88;;;3.97;;
22883;SDS011;13386;24.786;110.488;2023-05-07T12:26:49;6.90;;;4.00;;
22883;SDS011;13386;24.786;110.488;2023-05-07T12:29:23;7.22;;;4.15;;
22883;SDS011;13386;24.786;110.488;2023-05-07T12:31:55;6.65;;;4.22;;
22883;SDS011;13386;24.786;110.488;2023-05-07T12:34:26;8.88;;;4.10;;
22883;SDS011;13386;24.786;110.488;2023-05-07T12:36:58;8.10;;;4.15;;
22883;SDS011;13386;24.786;110.488;2023-05-07T12:39:32;8.10;;;3.92;;
22883;SDS011;13386;24.786;110.488;2023-05-07T12:42:02;7.32;;;4.10;;
22883;SDS011;13386;24.786;110.488;2023-05-07T12:44:32;7.63;;;3.92;;
22883;SDS011;13386;24.786;110.488;2023-05-07T12:47:06;8.35;;;3.75;;
22883;SDS011;13386;24.786;110.488;2023-05-07T12:49:38;8.07;;;4.40;;
22883;SDS011;13386;24.786;110.488;2023-05-07T12:52:09;7.90;;;4.05;;
22883;SDS011;13386;24.786;110.488;2023-05-07T12:54:43;8.50;;;3.85;;
22883;SDS011;13386;24.786;110.488;2023-05-07T12:57:18;8.50;;;4.15;;
22883;SDS011;13386;24.786;110.488;2023-05-07T12:59:57;7.85;;;4.30;;
22883;SDS011;13386;24.786;110.488;2023-05-07T13:02:34;12.82;;;4.70;;
22883;SDS011;13386;24.786;110.488;2023-05-07T13:05:04;6.90;;;3.85;;
22883;SDS011;13386;24.786;110.488;2023-05-07T13:07:35;7.75;;;4.13;;
22883;SDS011;13386;24.786;110.488;2023-05-07T13:10:05;7.55;;;4.30;;
22883;SDS011;13386;24.786;110.488;2023-05-07T13:12:35;8.32;;;4.18;;
22883;SDS011;13386;24.786;110.488;2023-05-07T13:15:11;9.50;;;4.15;;
22883;SDS011;13386;24.786;110.488;2023-05-07T13:17:43;6.55;;;4.13;;
22883;SDS011;13386;24.786;110.488;2023-05-07T13:20:13;10.05;;;4.20;;
22883;SDS011;13386;24.786;110.488;2023-05-07T13:22:44;7.70;;;4.15;;
22883;SDS011;13386;24.786;110.488;2023-05-07T13:25:14;7.47;;;4.40;;
22883;SDS011;13386;24.786;110.488;2023-05-07T13:27:44;9.38;;;4.43;;
22883;SDS011;13386;24.786;110.488;2023-05-07T13:30:15;9.02;;;3.65;;
22883;SDS011;13386;24.786;110.488;2023-05-07T13:32:47;9.77;;;4.30;;
22883;SDS011;13386;24.786;110.488;2023-05-07T13:35:19;6.68;;;3.88;;
22883;SDS011;13386;24.786;110.488;2023-05-07T13:37:51;8.32;;;4.30;;
22883;SDS011;13386;24.786;110.488;2023-05-07T13:40:22;8.50;;;4.18;;
22883;SDS011;13386;24.786;110.488;2023-05-07T13:43:05;10.15;;;4.50;;
22883;SDS011;13386;24.786;110.488;2023-05-07T13:45:35;6.85;;;4.20;;
22883;SDS011;13386;24.786;110.488;2023-05-07T13:48:08;8.85;;;4.70;;
22883;SDS011;13386;24.786;110.488;2023-05-07T13:50:39;8.18;;;4.20;;
22883;SDS011;13386;24.786;110.488;2023-05-07T13:53:14;9.10;;;4.47;;
22883;SDS011;13386;24.786;110.488;2023-05-07T13:55:45;8.73;;;4.38;;
22883;SDS011;13386;24.786;110.488;2023-05-07T13:58:15;8.23;;;4.40;;
22883;SDS011;13386;24.786;110.488;2023-05-07T14:00:50;8.00;;;4.35;;
22883;SDS011;13386;24.786;110.488;2023-05-07T14:03:21;9.05;;;4.38;;
22883;SDS011;13386;24.786;110.488;2023-05-07T14:05:53;8.88;;;3.97;;
22883;SDS011;13386;24.786;110.488;2023-05-07T14:08:26;7.55;;;4.00;;
22883;SDS011;13386;24.786;110.488;2023-05-07T14:10:57;7.47;;;4.10;;
22883;SDS011;13386;24.786;110.488;2023-05-07T14:13:29;9.35;;;4.07;;
22883;SDS011;13386;24.786;110.488;2023-05-07T14:16:03;8.52;;;4.38;;
22883;SDS011;13386;24.786;110.488;2023-05-07T14:18:35;7.68;;;4.18;;
22883;SDS011;13386;24.786;110.488;2023-05-07T14:21:05;9.90;;;4.82;;
22883;SDS011;13386;24.786;110.488;2023-05-07T14:23:38;9.85;;;4.50;;
22883;SDS011;13386;24.786;110.488;2023-05-07T14:26:17;9.30;;;4.50;;
22883;SDS011;13386;24.786;110.488;2023-05-07T14:28:51;12.52;;;5.40;;
22883;SDS011;13386;24.786;110.488;2023-05-07T14:31:25;9.57;;;4.75;;
22883;SDS011;13386;24.786;110.488;2023-05-07T14:33:58;9.50;;;4.82;;
22883;SDS011;13386;24.786;110.488;2023-05-07T14:36:30;9.23;;;4.40;;
22883;SDS011;13386;24.786;110.488;2023-05-07T14:39:02;9.55;;;4.63;;
22883;SDS011;13386;24.786;110.488;2023-05-07T14:41:34;8.73;;;4.97;;
22883;SDS011;13386;24.786;110.488;2023-05-07T14:44:07;8.13;;;4.72;;
22883;SDS011;13386;24.786;110.488;2023-05-07T14:46:39;9.43;;;4.82;;
22883;SDS011;13386;24.786;110.488;2023-05-07T14:49:14;10.32;;;5.38;;
22883;SDS011;13386;24.786;110.488;2023-05-07T14:51:47;9.73;;;5.00;;
22883;SDS011;13386;24.786;110.488;2023-05-07T14:54:20;9.23;;;4.82;;
22883;SDS011;13386;24.786;110.488;2023-05-07T14:56:52;10.23;;;5.07;;
22883;SDS011;13386;24.786;110.488;2023-05-07T14:59:25;10.88;;;4.93;;
22883;SDS011;13386;24.786;110.488;2023-05-07T15:01:57;9.25;;;5.28;;
22883;SDS011;13386;24.786;110.488;2023-05-07T15:04:33;9.02;;;5.00;;
22883;SDS011;13386;24.786;110.488;2023-05-07T15:07:05;9.60;;;4.93;;
22883;SDS011;13386;24.786;110.488;2023-05-07T15:09:38;10.23;;;5.07;;
22883;SDS011;13386;24.786;110.488;2023-05-07T15:12:08;12.05;;;5.60;;
22883;SDS011;13386;24.786;110.488;2023-05-07T15:14:40;10.65;;;4.90;;
22883;SDS011;13386;24.786;110.488;2023-05-07T15:17:16;13.60;;;6.22;;
22883;SDS011;13386;24.786;110.488;2023-05-07T15:19:51;11.95;;;6.18;;
22883;SDS011;13386;24.786;110.488;2023-05-07T15:22:22;10.20;;;5.68;;
22883;SDS011;13386;24.786;110.488;2023-05-07T15:24:54;13.00;;;6.00;;
22883;SDS011;13386;24.786;110.488;2023-05-07T15:27:25;13.30;;;6.57;;